Snow/Ice From: 17-12-2018 09:00 Until: 17:00 warning for: Snow/Ice Level: Yellow info button
suomi:
Liikennesää: Ajokeli muuttuu huonoksi päivällä lumisateen vuoksi.

svenska:
Trafikvädret: Väglaget blir dåligt på dagen p.g.a. snöfall.

english:
Traffic weather warning: Bad road conditions are expected at noon and in the afternoon because of snow. 


Thunder radar more information blitzortung!


Löydät sääaseman tiedot myös:

European Weather Network

Finland Weather Exchange

Weather Underground

AWEKAS



Weather Underground säähistoriasivu

Päivittäin yhteenveto Helmikuu 9, 2017 Yksiköt:  Englantilaiset    Metriset   Molemmat
« Edellinen Päivä
Seuraava Päivä »
Päivittäin Viikoittain Kuukausittain Vuosittain Mukautettu
  Korkea: Matala: Keskiarvo:
Lämpötila: TemperatureC °F -16.7 °F -11.6 °F
Kastepiste: DewpointC °F -18.2 °F -12.8 °F
Kosteus: Humidity % 88 % 89 %
Tuulen nopeus: WindSpeedKMH mph 0.0 mph 0 mph
Tuulenpuuska: WindSpeedGustKMH mph - -
Tuuli:- - North
Ilmanpaine: PressurehPa in 1044.9 in -
Sade: 0.0 in    
Historical Graphs
 
 
Taulukkotiedot Helmikuu 9, 2017
Aika Lämpötila Kastepiste Ilmanpaine Tuuli Tuulen nopeus Tuulenpuuska Kosteus Sademäärä (tunneittain)
TemperatureC °F DewpointC °F PressurehPa in Calm     Humidity % HourlyPrecipMM in
00:00 -15.7 °F -17.1 °F 1046.6 in Calm     89 % 0.0 in
00:15 -15.8 °F -17.2 °F 1046.6 in Calm     89 % 0.0 in
00:30 -15.9 °F -17.3 °F 1046.6 in Calm     89 % 0.0 in
00:45 -15.9 °F -17.3 °F 1046.3 in Calm     89 % 0.0 in
01:00 -16.1 °F -17.6 °F 1046.6 in Calm     88 % 0.0 in
01:15 -16.2 °F -17.7 °F 1046.3 in Calm     88 % 0.0 in
01:30 -16.2 °F -17.7 °F 1046.3 in Calm     88 % 0.0 in
01:45 -16.3 °F -17.7 °F 1046.3 in Calm     89 % 0.0 in
02:00 -16.2 °F -17.6 °F 1046.3 in Calm     89 % 0.0 in
02:15 -16.2 °F -17.6 °F 1045.9 in Calm     89 % 0.0 in
02:30 -16.2 °F -17.6 °F 1045.9 in Calm     89 % 0.0 in
02:45 -16.3 °F -17.8 °F 1045.9 in Calm     88 % 0.0 in
03:00 -16.3 °F -17.8 °F 1045.9 in Calm     88 % 0.0 in
03:15 -16.4 °F -17.9 °F 1045.9 in Calm     88 % 0.0 in
03:30 -16.6 °F -18.1 °F 1045.9 in Calm     88 % 0.0 in
03:45 -16.7 °F -18.2 °F 1045.9 in Calm     88 % 0.0 in
04:00 -16.2 °F -17.6 °F 1045.9 in Calm     89 % 0.0 in
04:15 -15.6 °F -16.8 °F 1045.6 in Calm     90 % 0.0 in
04:30 -15.1 °F -16.2 °F 1045.6 in Calm   3.2 mph 91 % 0.0 in
04:45 -14.3 °F -15.5 °F 1045.6 in Calm     91 % 0.0 in
05:00 -14.1 °F -15.3 °F 1045.6 in Calm     90 % 0.0 in
05:15 -13.7 °F -14.8 °F 1045.6 in Calm     91 % 0.0 in
05:30 -13.3 °F -14.5 °F 1045.3 in Calm     91 % 0.0 in
05:45 -13.1 °F -14.2 °F 1045.6 in Calm     91 % 0.0 in
06:00 -12.8 °F -14.0 °F 1045.3 in Calm     91 % 0.0 in
06:15 -12.6 °F -13.8 °F 1045.3 in Calm     91 % 0.0 in
06:30 -12.3 °F -13.3 °F 1044.9 in Calm     92 % 0.0 in
06:45 -12.0 °F -13.2 °F 1044.9 in Calm     91 % 0.0 in
07:00 -11.6 °F -12.6 °F 1044.9 in Calm     92 % 0.0 in
07:15 -10.9 °F -11.7 °F 1044.9 in Calm   1.6 mph 94 % 0.0 in
07:30 -9.1 °F -9.8 °F 1044.9 in Calm   4.8 mph 95 % 0.0 in
07:45 -8.4 °F -9.1 °F 1044.9 in Calm   4.8 mph 95 % 0.0 in
08:00 -8.3 °F -9.3 °F 1044.9 in North 1.6 mph 6.4 mph 93 % 0.0 in
08:15 -8.4 °F -9.3 °F 1044.9 in Calm   4.8 mph 93 % 0.0 in
08:30 -8.4 °F -9.4 °F 1044.9 in Calm   3.2 mph 93 % 0.0 in
08:45 -8.6 °F -9.5 °F 1044.9 in Calm   3.2 mph 93 % 0.0 in
09:00 -8.6 °F -9.5 °F 1045.3 in Calm     93 % 0.0 in
09:15 -8.7 °F -9.6 °F 1045.3 in Calm     93 % 0.0 in
09:30 -8.8 °F -9.8 °F 1045.3 in Calm   1.6 mph 92 % 0.0 in
09:45 -8.9 °F -9.8 °F 1045.3 in Calm     93 % 0.0 in
10:00 -8.9 °F -9.8 °F 1045.3 in Calm   1.6 mph 93 % 0.0 in
10:15 -8.9 °F -9.9 °F 1045.3 in Calm     93 % 0.0 in
10:30 -8.9 °F -10.0 °F 1045.3 in Calm   1.6 mph 92 % 0.0 in
10:45 -9.1 °F -10.2 °F 1045.6 in Calm   3.2 mph 92 % 0.0 in
11:00 -9.1 °F -10.2 °F 1045.6 in Calm     92 % 0.0 in
11:15 -9.2 °F -10.2 °F 1045.6 in Calm     92 % 0.0 in
11:30 -9.2 °F -10.4 °F 1045.6 in Calm   3.2 mph 91 % 0.0 in
11:45 -9.3 °F -10.5 °F 1045.6 in Calm   1.6 mph 91 % 0.0 in
12:00 -9.4 °F -10.6 °F 1045.6 in Calm   1.6 mph 91 % 0.0 in
12:15 -9.5 °F -10.7 °F 1045.6 in Calm   1.6 mph 91 % 0.0 in
12:30 -9.5 °F -10.8 °F 1045.6 in Calm   1.6 mph 90 % 0.0 in
12:45 -9.5 °F -10.8 °F 1045.6 in Calm     90 % 0.0 in
13:00 -9.6 °F -10.9 °F 1045.6 in Calm     90 % 0.0 in
13:15 -9.6 °F -10.9 °F 1045.6 in Calm     90 % 0.0 in
13:30 -9.4 °F -10.9 °F 1045.6 in Calm     89 % 0.0 in
13:45 -9.5 °F -11.0 °F 1045.6 in Calm     89 % 0.0 in
14:00 -9.5 °F -11.0 °F 1045.6 in Calm     89 % 0.0 in
14:15 -9.4 °F -10.9 °F 1045.6 in Calm     89 % 0.0 in
14:30 -9.4 °F -11.1 °F 1045.6 in Calm     88 % 0.0 in
14:45 -9.4 °F -10.9 °F 1045.6 in Calm     89 % 0.0 in
15:00 -9.4 °F -10.9 °F 1045.6 in Calm     89 % 0.0 in
15:15 -9.4 °F -10.9 °F 1045.6 in Calm     89 % 0.0 in
15:30 -9.5 °F -11.0 °F 1045.6 in Calm   1.6 mph 89 % 0.0 in
15:45 -9.7 °F -11.2 °F 1045.9 in Calm   1.6 mph 89 % 0.0 in
16:00 -9.9 °F -11.4 °F 1045.9 in Calm   1.6 mph 89 % 0.0 in
16:15 -10.0 °F -11.5 °F 1045.9 in Calm     89 % 0.0 in
16:30 -10.0 °F -11.3 °F 1045.9 in Calm   1.6 mph 90 % 0.0 in
16:45 -10.2 °F -11.7 °F 1045.9 in Calm   3.2 mph 89 % 0.0 in
17:00 -10.6 °F -12.2 °F 1045.9 in Calm   3.2 mph 88 % 0.0 in
17:15 -10.9 °F -12.5 °F 1045.9 in Calm     88 % 0.0 in
17:30 -11.1 °F -12.7 °F 1045.9 in Calm     88 % 0.0 in
17:45 -11.4 °F -12.9 °F 1045.9 in Calm     89 % 0.0 in
18:00 -11.7 °F -13.1 °F 1045.9 in Calm     89 % 0.0 in
18:15 -11.8 °F -13.3 °F 1045.9 in Calm     89 % 0.0 in
18:30 -12.0 °F -13.4 °F 1045.9 in Calm     89 % 0.0 in
18:45 -12.1 °F -13.4 °F 1045.9 in Calm     90 % 0.0 in
19:00 -11.9 °F -13.1 °F 1045.9 in Calm     91 % 0.0 in
19:15 -11.8 °F -13.0 °F 1046.3 in Calm     91 % 0.0 in
19:30 -11.8 °F -13.1 °F 1046.3 in Calm     90 % 0.0 in
19:45 -11.9 °F -13.2 °F 1046.3 in Calm     90 % 0.0 in
20:00 -11.9 °F -13.3 °F 1046.3 in Calm     90 % 0.0 in
20:15 -11.9 °F -13.1 °F 1046.3 in Calm     91 % 0.0 in
20:30 -11.9 °F -13.1 °F 1046.3 in Calm     91 % 0.0 in
20:45 -11.8 °F -12.9 °F 1046.6 in Calm   1.6 mph 91 % 0.0 in
21:00 -11.6 °F -12.8 °F 1047.0 in Calm     91 % 0.0 in
21:15 -11.4 °F -12.6 °F 1047.0 in Calm   3.2 mph 91 % 0.0 in
21:30 -11.3 °F -12.3 °F 1047.0 in Calm   3.2 mph 92 % 0.0 in
21:45 -11.0 °F -12.0 °F 1047.0 in Calm     92 % 0.0 in
22:00 -10.9 °F -12.1 °F 1047.0 in Calm     91 % 0.0 in
22:15 -10.9 °F -12.1 °F 1047.3 in Calm   3.2 mph 91 % 0.0 in
22:30 -10.9 °F -12.1 °F 1047.3 in Calm     91 % 0.0 in
22:45 -11.2 °F -12.5 °F 1047.3 in Calm     90 % 0.0 in
23:00 -11.4 °F -12.8 °F 1047.3 in Calm     90 % 0.0 in
23:15 -11.8 °F -13.3 °F 1047.6 in Calm     89 % 0.0 in
23:30 -12.3 °F -13.6 °F 1047.3 in Calm     90 % 0.0 in
23:45 -12.7 °F -14.0 °F 1047.3 in Calm     90 % 0.0 in
Esan sääasema
Terveisin Weather Underground - 2.75 mb

Alkuperäinen skripti  Jim McMurry - jmcmurry@mwt.net Sovitettu myös templatelle  Wim van der Kuil - Leuven-Template.eu

Laitteet joita käytämme:

Sääasema
Davis VP2

Sääasemaohjelma
Cumulus

Sääaseman tietokone
Asus EeePC

Palveluntarjoaja
Suncomet

Davis VP2

Cumulus

Asus EeePC

Suncomet